Time;durP1;ratioP1;P1;durP2;ratioP2;P2;SDS_P1;SDS_P2;PMS_P1;PMS_P2;Temp;Humidity;BMP_temperature;BMP_pressure;BME280_temperature;BME280_humidity;BME280_pressure;Samples;Min_cycle;Max_cycle;Signal;HPM_P1;HPM_P2
2023/03/18 00:01:55;;;;;;;;;10.67;8.67;;;;;12.53;100.00;100414.47;5066947;27;46418;-67
2023/03/18 00:04:20;;;;;;;;;11.33;11.00;;;;;12.50;100.00;100417.66;5068478;27;45988;-68
2023/03/18 00:06:46;;;;;;;;;10.67;9.33;;;;;12.47;100.00;100415.38;5060398;28;45882;-67
2023/03/18 00:09:12;;;;;;;;;9.33;9.33;;;;;12.42;100.00;100420.72;5069322;28;45337;-66
2023/03/18 00:11:39;;;;;;;;;15.00;12.33;;;;;12.39;100.00;100422.03;5057420;28;45528;-68
2023/03/18 00:14:05;;;;;;;;;12.00;9.00;;;;;12.37;100.00;100424.16;5067893;28;48129;-69
2023/03/18 00:16:31;;;;;;;;;12.00;12.00;;;;;12.32;100.00;100427.59;5054260;27;45298;-68
2023/03/18 00:18:56;;;;;;;;;11.00;9.33;;;;;12.32;100.00;100429.50;5082253;27;45688;-67
2023/03/18 00:21:22;;;;;;;;;15.33;11.67;;;;;12.31;100.00;100423.16;5066768;27;45278;-68
2023/03/18 00:23:49;;;;;;;;;17.00;13.00;;;;;12.26;100.00;100422.16;5056548;27;45461;-69
2023/03/18 00:26:16;;;;;;;;;14.00;12.33;;;;;12.15;100.00;100416.34;5057481;27;45456;-68
2023/03/18 00:28:41;;;;;;;;;17.00;12.33;;;;;12.19;100.00;100428.56;5058177;28;45437;-69
2023/03/18 00:31:09;;;;;;;;;10.67;10.67;;;;;12.19;100.00;100434.06;5066687;27;45408;-68
2023/03/18 00:33:39;;;;;;;;;13.00;11.67;;;;;12.17;100.00;100447.22;5068424;27;45324;-69
2023/03/18 00:36:08;;;;;;;;;9.00;9.00;;;;;12.11;100.00;100433.53;5064886;27;45809;-69
2023/03/18 00:38:35;;;;;;;;;11.00;10.33;;;;;12.11;100.00;100436.28;5072098;27;45754;-68
2023/03/18 00:41:10;;;;;;;;;11.67;11.33;;;;;12.08;100.00;100433.97;5065607;27;45843;-68
2023/03/18 00:43:53;;;;;;;;;14.33;13.33;;;;;12.00;100.00;100429.63;5060140;27;45627;-68
2023/03/18 00:46:36;;;;;;;;;15.00;11.67;;;;;12.00;100.00;100440.63;5060176;28;45439;-68
2023/03/18 00:49:04;;;;;;;;;11.00;11.00;;;;;11.94;100.00;100430.53;5069710;27;45785;-69
2023/03/18 00:51:31;;;;;;;;;15.33;12.00;;;;;11.92;100.00;100433.47;5059907;28;46968;-69
2023/03/18 00:54:00;;;;;;;;;14.00;12.67;;;;;11.88;100.00;100437.72;5062166;28;45370;-68
2023/03/18 00:56:29;;;;;;;;;16.67;13.00;;;;;11.73;100.00;100418.84;5058194;28;45686;-68
2023/03/18 00:58:56;;;;;;;;;11.67;10.00;;;;;11.81;100.00;100426.81;5063483;27;45790;-69
2023/03/18 01:01:23;;;;;;;;;14.67;12.67;;;;;11.80;100.00;100440.78;5060964;27;45680;-67
2023/03/18 01:03:49;;;;;;;;;16.00;16.00;;;;;11.78;100.00;100441.00;5072080;27;46238;-67
2023/03/18 01:06:19;;;;;;;;;16.67;12.33;;;;;11.73;100.00;100434.50;5066922;28;45545;-69
2023/03/18 01:08:45;;;;;;;;;13.67;11.33;;;;;11.72;100.00;100432.81;5073991;27;45348;-68
2023/03/18 01:11:10;;;;;;;;;16.33;15.00;;;;;11.72;100.00;100439.16;5052650;28;45457;-69
2023/03/18 01:13:36;;;;;;;;;14.00;13.00;;;;;11.68;100.00;100437.06;5068855;28;48085;-68
2023/03/18 01:16:03;;;;;;;;;11.00;11.00;;;;;11.66;100.00;100437.28;5061898;27;45406;-69
2023/03/18 01:18:29;;;;;;;;;16.33;12.00;;;;;11.50;100.00;100416.72;5066025;28;45436;-69
2023/03/18 01:20:55;;;;;;;;;13.67;13.67;;;;;11.49;100.00;100407.63;5086855;27;46452;-70
2023/03/18 01:23:21;;;;;;;;;15.33;14.33;;;;;11.58;100.00;100419.16;5065097;28;46312;-68
2023/03/18 01:25:46;;;;;;;;;11.00;11.00;;;;;11.54;100.00;100422.59;5063936;27;45779;-70
2023/03/18 01:28:13;;;;;;;;;9.67;9.67;;;;;11.51;100.00;100412.06;5065931;28;45907;-72
2023/03/18 01:30:39;;;;;;;;;9.00;9.00;;;;;11.48;100.00;100411.44;5062928;28;45752;-70
2023/03/18 01:33:06;;;;;;;;;13.00;13.00;;;;;11.46;100.00;100408.06;5073071;27;45740;-69
2023/03/18 01:35:33;;;;;;;;;12.67;10.00;;;;;11.40;100.00;100392.50;5058504;28;45458;-69
2023/03/18 01:37:59;;;;;;;;;13.00;11.67;;;;;11.36;100.00;100385.78;5069771;28;45263;-71
2023/03/18 01:40:25;;;;;;;;;12.00;11.33;;;;;11.43;100.00;100391.22;5066757;27;45981;-69
2023/03/18 01:43:14;;;;;;;;;11.00;11.00;;;;;11.39;100.00;100393.56;5063221;28;47891;-68
2023/03/18 01:45:46;;;;;;;;;11.00;10.67;;;;;11.40;100.00;100388.91;5068784;27;45349;-70
2023/03/18 01:48:17;;;;;;;;;16.00;13.33;;;;;11.37;100.00;100392.94;5061858;27;45506;-69
2023/03/18 01:50:45;;;;;;;;;17.67;13.00;;;;;11.36;100.00;100391.28;5069835;28;45709;-67
2023/03/18 01:53:15;;;;;;;;;16.00;14.33;;;;;11.24;100.00;100382.06;5066853;28;48428;-69
2023/03/18 01:55:44;;;;;;;;;17.33;15.67;;;;;11.35;100.00;100406.06;5070841;27;45787;-68
2023/03/18 01:58:33;;;;;;;;;14.00;14.00;;;;;11.35;100.00;100410.69;5065833;27;45382;-67
2023/03/18 02:01:22;;;;;;;;;16.33;14.67;;;;;11.30;100.00;100400.38;5068972;27;45505;-69
2023/03/18 02:03:49;;;;;;;;;16.00;11.67;;;;;11.31;100.00;100393.84;5060751;27;45665;-71
2023/03/18 02:06:15;;;;;;;;;14.67;12.33;;;;;11.36;100.00;100396.78;5071122;27;45432;-67
2023/03/18 02:08:41;;;;;;;;;11.00;10.00;;;;;11.36;100.00;100391.28;5062860;28;45428;-67
2023/03/18 02:11:08;;;;;;;;;14.00;12.33;;;;;11.26;100.00;100371.72;5064697;27;45955;-68
2023/03/18 02:13:42;;;;;;;;;13.00;10.00;;;;;11.38;100.00;100375.41;5070166;27;45845;-67
2023/03/18 02:16:26;;;;;;;;;14.00;12.00;;;;;11.42;100.00;100379.41;5061887;27;45528;-67
2023/03/18 02:19:01;;;;;;;;;10.67;10.33;;;;;11.46;100.00;100388.84;5067912;27;45881;-67
2023/03/18 02:21:32;;;;;;;;;12.00;12.00;;;;;11.43;100.00;100381.06;5069484;28;45437;-68
2023/03/18 02:24:02;;;;;;;;;12.00;12.00;;;;;11.49;100.00;100406.78;5060512;27;45611;-67
2023/03/18 02:26:42;;;;;;;;;13.67;12.33;;;;;11.48;100.00;100407.84;5058869;27;45388;-67
2023/03/18 02:29:13;;;;;;;;;11.00;11.00;;;;;11.51;100.00;100410.13;5060451;27;45375;-66
2023/03/18 02:31:42;;;;;;;;;19.00;16.00;;;;;11.51;100.00;100403.81;5056752;28;45765;-68
2023/03/18 02:34:09;;;;;;;;;14.00;14.00;;;;;11.54;100.00;100403.38;5066473;28;46646;-69
2023/03/18 02:36:36;;;;;;;;;15.33;14.33;;;;;11.59;100.00;100411.78;5071764;27;45395;-67
2023/03/18 02:39:02;;;;;;;;;12.67;10.00;;;;;11.61;100.00;100399.50;5065893;28;45721;-68
2023/03/18 02:41:33;;;;;;;;;16.67;15.00;;;;;11.64;100.00;100395.47;5053238;28;45794;-68
2023/03/18 02:43:58;;;;;;;;;13.67;11.67;;;;;11.66;100.00;100393.31;5052288;28;46691;-68
2023/03/18 02:46:33;;;;;;;;;13.00;12.67;;;;;11.65;100.00;100402.66;5066698;28;45539;-67
2023/03/18 02:49:01;;;;;;;;;13.67;11.33;;;;;11.66;100.00;100409.81;5058395;28;46197;-68
2023/03/18 02:51:27;;;;;;;;;13.33;12.33;;;;;11.72;100.00;100411.69;5051792;28;45801;-71
2023/03/18 02:54:00;;;;;;;;;12.00;12.00;;;;;11.78;100.00;100413.53;5053907;28;46567;-69
2023/03/18 02:56:25;;;;;;;;;11.00;11.00;;;;;11.83;100.00;100408.19;5069732;28;45743;-71
2023/03/18 02:58:51;;;;;;;;;11.33;10.33;;;;;11.87;100.00;100407.72;5056438;27;45349;-69
2023/03/18 03:01:18;;;;;;;;;9.00;9.00;;;;;11.86;100.00;100400.56;5058104;27;45828;-69
2023/03/18 03:03:44;;;;;;;;;7.00;6.67;;;;;11.97;100.00;100402.59;5073373;27;48177;-68
2023/03/18 03:06:09;;;;;;;;;7.33;7.00;;;;;11.99;100.00;100406.81;5058246;28;45678;-68
2023/03/18 03:08:36;;;;;;;;;7.67;7.67;;;;;12.06;100.00;100405.91;5072472;27;45474;-68
2023/03/18 03:11:01;;;;;;;;;7.00;7.00;;;;;12.12;100.00;100408.56;5070962;27;45687;-68
2023/03/18 03:13:28;;;;;;;;;4.33;4.00;;;;;12.18;100.00;100412.31;5066686;27;45710;-67
2023/03/18 03:15:54;;;;;;;;;7.00;7.00;;;;;12.21;100.00;100417.34;5066214;28;45687;-69
2023/03/18 03:18:20;;;;;;;;;5.67;5.00;;;;;12.24;100.00;100414.16;5063157;28;45324;-69
2023/03/18 03:20:46;;;;;;;;;6.67;6.67;;;;;12.17;100.00;100395.00;5070351;27;45804;-68
2023/03/18 03:23:15;;;;;;;;;6.33;4.67;;;;;12.29;100.00;100405.22;5065011;28;45578;-69
2023/03/18 03:25:43;;;;;;;;;5.00;4.00;;;;;12.32;100.00;100410.25;5073344;27;45684;-68
2023/03/18 03:28:10;;;;;;;;;4.33;4.33;;;;;12.29;100.00;100403.31;5063267;27;45673;-68
2023/03/18 03:30:36;;;;;;;;;5.67;4.67;;;;;12.40;100.00;100414.63;5067292;27;46134;-70
2023/03/18 03:33:02;;;;;;;;;5.00;5.00;;;;;12.40;100.00;100406.38;5064282;28;46403;-68
2023/03/18 03:35:28;;;;;;;;;6.33;4.33;;;;;12.45;100.00;100418.34;5072075;27;45882;-68
2023/03/18 03:37:53;;;;;;;;;3.67;3.67;;;;;12.49;100.00;100422.31;5069754;27;45579;-68
2023/03/18 03:40:19;;;;;;;;;3.67;3.67;;;;;12.51;100.00;100417.47;5061538;27;45849;-66
2023/03/18 03:42:46;;;;;;;;;4.33;4.33;;;;;12.53;100.00;100423.56;5074876;28;46081;-68
2023/03/18 03:45:13;;;;;;;;;5.00;3.67;;;;;12.53;100.00;100422.72;5074666;27;45795;-67
2023/03/18 03:47:39;;;;;;;;;6.00;4.00;;;;;12.51;100.00;100417.47;5063970;27;45448;-68
2023/03/18 03:50:05;;;;;;;;;5.67;5.67;;;;;12.54;100.00;100416.13;5059040;27;46343;-67
2023/03/18 03:52:32;;;;;;;;;4.67;2.67;;;;;12.58;100.00;100413.78;5058421;27;47595;-68
2023/03/18 03:54:59;;;;;;;;;3.67;3.00;;;;;12.62;100.00;100420.47;5059147;28;45738;-69
2023/03/18 03:57:25;;;;;;;;;5.00;4.67;;;;;12.61;100.00;100425.16;5065735;27;45471;-68
2023/03/18 03:59:51;;;;;;;;;4.33;3.33;;;;;12.60;100.00;100425.38;5064049;27;45801;-66
2023/03/18 04:02:17;;;;;;;;;3.00;3.00;;;;;12.62;100.00;100434.25;5063957;28;45890;-66
2023/03/18 04:04:45;;;;;;;;;3.67;3.67;;;;;12.66;100.00;100436.28;5065266;28;45417;-68
2023/03/18 04:07:11;;;;;;;;;5.00;5.00;;;;;12.62;100.00;100425.97;5067533;27;45794;-67
2023/03/18 04:09:37;;;;;;;;;4.00;4.00;;;;;12.69;100.00;100429.50;5064672;28;45449;-67
2023/03/18 04:12:04;;;;;;;;;3.33;3.33;;;;;12.74;100.00;100428.81;5070126;28;45656;-68
2023/03/18 04:14:30;;;;;;;;;4.00;4.00;;;;;12.77;100.00;100428.34;5067683;28;45215;-67
2023/03/18 04:16:57;;;;;;;;;4.33;4.00;;;;;12.79;100.00;100435.28;5058401;27;45724;-73
2023/03/18 04:19:24;;;;;;;;;2.67;2.67;;;;;12.82;100.00;100429.34;5061270;28;45883;-66
2023/03/18 04:21:50;;;;;;;;;3.00;3.00;;;;;12.83;100.00;100425.50;5068912;28;46160;-66
2023/03/18 04:24:16;;;;;;;;;4.00;4.00;;;;;12.86;100.00;100421.47;5086730;27;45754;-66
2023/03/18 04:26:42;;;;;;;;;2.67;2.67;;;;;12.79;100.00;100412.44;5065998;27;45493;-69
2023/03/18 04:29:07;;;;;;;;;5.33;4.00;;;;;12.91;100.00;100429.84;5074257;27;46036;-66
2023/03/18 04:31:33;;;;;;;;;2.00;2.00;;;;;12.95;100.00;100435.72;5061280;27;45827;-66
2023/03/18 04:33:58;;;;;;;;;3.00;3.00;;;;;12.93;100.00;100435.13;5065600;27;45294;-65
2023/03/18 04:36:25;;;;;;;;;4.33;3.67;;;;;12.89;100.00;100430.09;5066818;28;45417;-67
2023/03/18 04:38:50;;;;;;;;;3.67;3.67;;;;;12.86;100.00;100433.31;5071854;27;45344;-67
2023/03/18 04:41:16;;;;;;;;;3.33;3.33;;;;;12.87;100.00;100423.13;5071755;27;46625;-67
2023/03/18 04:43:43;;;;;;;;;2.00;2.00;;;;;12.91;100.00;100423.53;5071277;28;45368;-67
2023/03/18 04:46:10;;;;;;;;;2.33;1.67;;;;;12.87;100.00;100418.47;5056272;28;45745;-67
2023/03/18 04:48:37;;;;;;;;;2.67;2.67;;;;;12.89;100.00;100427.34;5069799;27;45738;-66
2023/03/18 04:51:02;;;;;;;;;3.00;1.00;;;;;12.75;100.00;100412.06;5067780;27;45350;-65
2023/03/18 04:53:28;;;;;;;;;2.00;2.00;;;;;12.84;100.00;100423.59;5070997;28;45298;-66
2023/03/18 04:55:54;;;;;;;;;3.67;3.00;;;;;12.76;100.00;100416.50;5070444;27;45778;-65
2023/03/18 04:58:19;;;;;;;;;5.67;5.67;;;;;12.70;100.00;100414.69;5072611;27;45865;-67
2023/03/18 05:00:45;;;;;;;;;4.00;3.00;;;;;12.64;100.00;100423.84;5054076;28;45778;-67
2023/03/18 05:03:11;;;;;;;;;3.33;3.33;;;;;12.60;100.00;100428.13;5055197;27;45500;-65
2023/03/18 05:05:36;;;;;;;;;4.33;4.00;;;;;12.56;100.00;100421.41;5054475;28;45842;-69
2023/03/18 05:08:02;;;;;;;;;5.67;5.33;;;;;12.52;100.00;100408.13;5065480;27;45644;-67
2023/03/18 05:10:27;;;;;;;;;3.00;3.00;;;;;12.48;100.00;100408.81;5057346;28;48536;-68
2023/03/18 05:12:54;;;;;;;;;2.67;2.67;;;;;12.42;100.00;100405.06;5068163;27;46009;-69
2023/03/18 05:15:19;;;;;;;;;2.67;2.33;;;;;12.39;100.00;100405.53;5071389;27;45589;-68
2023/03/18 05:17:44;;;;;;;;;3.00;3.00;;;;;12.36;100.00;100416.97;5057518;28;46541;-69
2023/03/18 05:20:12;;;;;;;;;1.67;1.67;;;;;12.30;100.00;100412.41;5055517;28;48550;-68
2023/03/18 05:22:38;;;;;;;;;3.00;3.00;;;;;12.26;100.00;100414.78;5054688;27;45488;-68
2023/03/18 05:25:05;;;;;;;;;2.00;2.00;;;;;12.12;100.00;100400.31;5065522;27;45722;-69
2023/03/18 05:27:31;;;;;;;;;3.67;3.33;;;;;12.18;100.00;100415.91;5060223;28;46583;-67
2023/03/18 05:29:56;;;;;;;;;4.00;4.00;;;;;12.07;100.00;100410.34;5046052;28;46320;-67
2023/03/18 05:32:22;;;;;;;;;4.67;4.67;;;;;11.99;100.00;100411.44;5070310;27;45726;-69
2023/03/18 05:34:47;;;;;;;;;4.00;3.00;;;;;11.89;100.00;100405.63;5064744;28;45685;-69
2023/03/18 05:37:14;;;;;;;;;2.00;1.00;;;;;11.83;100.00;100408.19;5059769;28;45337;-67
2023/03/18 05:39:39;;;;;;;;;5.00;3.67;;;;;11.73;100.00;100404.28;5069175;27;47651;-69
2023/03/18 05:42:06;;;;;;;;;4.67;4.67;;;;;11.65;100.00;100411.72;5072794;28;45713;-67
2023/03/18 05:44:32;;;;;;;;;3.67;3.67;;;;;11.57;100.00;100411.16;5072355;28;45807;-67
2023/03/18 05:46:58;;;;;;;;;3.00;3.00;;;;;11.55;100.00;100416.88;5066102;28;45662;-69
2023/03/18 05:49:24;;;;;;;;;4.00;4.00;;;;;11.50;100.00;100405.72;5063031;28;45404;-69
2023/03/18 05:51:49;;;;;;;;;5.00;2.33;;;;;11.47;100.00;100401.53;5066622;28;45577;-69
2023/03/18 05:54:16;;;;;;;;;3.67;3.67;;;;;11.31;100.00;100382.84;5058573;28;45627;-70
2023/03/18 05:56:44;;;;;;;;;4.67;3.67;;;;;11.36;100.00;100406.88;5066372;28;45817;-70
2023/03/18 05:59:11;;;;;;;;;7.67;5.00;;;;;11.30;100.00;100398.50;5069676;27;46948;-70
2023/03/18 06:01:37;;;;;;;;;4.67;3.67;;;;;11.26;100.00;100404.66;5071031;27;45872;-70
2023/03/18 06:04:05;;;;;;;;;5.67;5.67;;;;;11.19;100.00;100403.84;5069360;28;45423;-67
2023/03/18 06:06:30;;;;;;;;;5.00;5.00;;;;;11.23;100.00;100405.94;5066439;28;45710;-69
2023/03/18 06:08:57;;;;;;;;;6.00;6.00;;;;;11.19;100.00;100406.59;5071265;27;46092;-67
2023/03/18 06:11:23;;;;;;;;;6.67;6.33;;;;;11.08;100.00;100395.25;5067722;28;45775;-69
2023/03/18 06:13:49;;;;;;;;;5.67;5.67;;;;;11.18;100.00;100411.22;5065713;28;45783;-69
2023/03/18 06:16:15;;;;;;;;;8.00;5.67;;;;;11.18;100.00;100405.72;5064700;28;45746;-69
2023/03/18 06:18:41;;;;;;;;;7.33;6.00;;;;;11.17;100.00;100415.06;5064926;28;45476;-69
2023/03/18 06:21:08;;;;;;;;;8.67;7.00;;;;;11.16;100.00;100413.34;5054673;28;45673;-70
2023/03/18 06:23:34;;;;;;;;;9.00;7.00;;;;;11.19;100.00;100417.56;5066654;27;45645;-69
2023/03/18 06:26:00;;;;;;;;;7.67;7.67;;;;;11.17;100.00;100420.53;5071644;27;45737;-69
2023/03/18 06:28:25;;;;;;;;;10.00;8.33;;;;;11.23;100.00;100427.06;5071671;28;45665;-69
2023/03/18 06:30:56;;;;;;;;;13.33;8.67;;;;;11.23;100.00;100436.13;5071423;28;45364;-69
2023/03/18 06:33:22;;;;;;;;;9.33;8.33;;;;;11.25;100.00;100423.00;5069999;28;45587;-69
2023/03/18 06:35:48;;;;;;;;;10.00;9.00;;;;;11.33;100.00;100424.63;5085162;27;47244;-68
2023/03/18 06:38:15;;;;;;;;;11.00;11.00;;;;;11.38;100.00;100435.81;5067270;28;45909;-68
2023/03/18 06:40:41;;;;;;;;;9.00;7.67;;;;;11.42;100.00;100442.56;5060706;27;45759;-68
2023/03/18 06:43:07;;;;;;;;;5.00;5.00;;;;;11.51;100.00;100440.34;5071423;27;45428;-68
2023/03/18 06:45:33;;;;;;;;;10.00;9.00;;;;;11.62;100.00;100444.31;5069101;28;45720;-70
2023/03/18 06:47:59;;;;;;;;;9.33;6.00;;;;;11.73;100.00;100440.81;5064795;27;45940;-69
2023/03/18 06:50:25;;;;;;;;;6.00;6.00;;;;;11.70;100.00;100427.53;5059188;28;45471;-68
2023/03/18 06:52:51;;;;;;;;;7.67;6.67;;;;;12.11;100.00;100430.78;5071029;27;45750;-67
2023/03/18 06:55:17;;;;;;;;;5.33;5.00;;;;;12.30;100.00;100417.91;5070431;27;45688;-69
2023/03/18 06:57:43;;;;;;;;;3.33;3.33;;;;;12.52;100.00;100430.13;5069193;28;46948;-72
2023/03/18 07:00:10;;;;;;;;;4.33;3.33;;;;;13.09;100.00;100434.47;5059991;28;45900;-68
2023/03/18 07:02:35;;;;;;;;;5.00;4.67;;;;;14.04;100.00;100427.28;5104163;22;45649;-85
2023/03/18 07:05:03;;;;;;;;;2.67;2.67;;;;;14.97;100.00;100430.13;5035945;28;45589;-83
2023/03/18 07:07:28;;;;;;;;;3.00;3.00;;;;;15.85;100.00;100429.78;5030460;28;47205;-85
2023/03/18 07:09:54;;;;;;;;;4.67;3.00;;;;;16.59;100.00;100434.16;5021031;28;45430;-82
2023/03/18 07:12:19;;;;;;;;;2.00;2.00;;;;;17.35;100.00;100427.06;5028880;28;45851;-84
2023/03/18 07:14:45;;;;;;;;;2.00;2.00;;;;;17.94;100.00;100430.91;5029370;28;45680;-84
2023/03/18 07:17:11;;;;;;;;;1.00;1.00;;;;;18.50;100.00;100434.06;5019369;28;46482;-82
2023/03/18 07:19:37;;;;;;;;;3.00;3.00;;;;;19.02;100.00;100431.50;5032293;28;45467;-84
2023/03/18 07:22:03;;;;;;;;;3.00;3.00;;;;;19.36;100.00;100442.16;5044511;28;45708;-84
2023/03/18 07:24:29;;;;;;;;;2.00;2.00;;;;;19.30;100.00;100451.59;5029498;28;45086;-84
2023/03/18 07:26:55;;;;;;;;;2.00;2.00;;;;;18.48;100.00;100455.69;5038739;28;46116;-85
2023/03/18 07:29:21;;;;;;;;;1.00;1.00;;;;;17.78;100.00;100454.88;5042342;28;45691;-84
2023/03/18 07:31:47;;;;;;;;;1.00;1.00;;;;;17.13;100.00;100456.75;5042471;28;45899;-87
2023/03/18 07:34:13;;;;;;;;;2.00;2.00;;;;;16.73;100.00;100451.22;5035688;28;45778;-83
2023/03/18 07:36:40;;;;;;;;;3.00;2.00;;;;;16.33;100.00;100446.84;5031225;28;47751;-84
2023/03/18 07:39:08;;;;;;;;;1.67;1.67;;;;;15.96;100.00;100447.38;5030540;28;45379;-82
2023/03/18 07:41:35;;;;;;;;;1.00;1.00;;;;;15.68;100.00;100473.97;5038710;28;45822;-89
2023/03/18 07:44:00;;;;;;;;;3.33;2.33;;;;;15.30;100.00;100463.59;5031856;28;46915;-88
2023/03/18 07:46:26;;;;;;;;;1.00;1.00;;;;;14.91;100.00;100452.34;5034824;28;46535;-84
2023/03/18 07:48:52;;;;;;;;;1.33;1.33;;;;;14.58;100.00;100446.41;5020265;28;46025;-86
2023/03/18 07:51:44;;;;;;;;;1.00;1.00;;;;;14.30;100.00;100442.47;5035870;28;45761;-88
2023/03/18 07:54:10;;;;;;;;;1.33;1.00;;;;;14.36;100.00;100461.94;5044068;28;45937;-84
2023/03/18 07:56:38;;;;;;;;;2.00;2.00;;;;;14.01;100.00;100433.28;5030337;28;46968;-85
2023/03/18 07:59:17;;;;;;;;;2.00;2.00;;;;;13.93;100.00;100444.66;5030395;28;45485;-86
2023/03/18 08:02:40;;;;;;;;;;;;;;;;;;;;;
2023/03/18 08:06:10;;;;;;;;;1.33;0.00;;;;;13.72;100.00;100463.44;5028315;28;45474;-83
2023/03/18 08:08:36;;;;;;;;;3.33;1.33;;;;;13.56;100.00;100437.41;5029731;28;45599;-83
2023/03/18 08:11:02;;;;;;;;;1.33;0.00;;;;;13.63;100.00;100470.38;5016047;28;45691;-82
2023/03/18 08:13:28;;;;;;;;;2.00;2.00;;;;;13.56;100.00;100475.13;5034290;28;45672;-84
2023/03/18 08:15:55;;;;;;;;;0.67;0.67;;;;;13.60;100.00;100474.41;5058666;28;46131;-85
2023/03/18 08:18:21;;;;;;;;;1.00;1.00;;;;;13.59;100.00;100475.53;5019487;28;46002;-85
2023/03/18 08:20:47;;;;;;;;;2.67;2.67;;;;;13.66;100.00;100488.34;5029017;28;45482;-85
2023/03/18 08:23:13;;;;;;;;;0.67;0.67;;;;;13.69;100.00;100480.44;5026945;28;45449;-84
2023/03/18 08:25:40;;;;;;;;;0.67;0.67;;;;;13.54;100.00;100456.09;5048692;28;45840;-85
2023/03/18 08:28:10;;;;;;;;;1.00;1.00;;;;;13.64;100.00;100460.16;5046060;28;45205;-85
2023/03/18 08:30:38;;;;;;;;;1.67;1.67;;;;;13.82;100.00;100482.16;5029753;28;45378;-83
2023/03/18 08:33:04;;;;;;;;;1.33;1.33;;;;;13.92;100.00;100481.56;5032581;28;46109;-84
2023/03/18 08:35:30;;;;;;;;;2.00;2.00;;;;;13.87;100.00;100468.50;5014049;28;46304;-84
2023/03/18 08:37:55;;;;;;;;;3.00;1.67;;;;;14.01;100.00;100476.53;5011311;28;45827;-83
2023/03/18 08:40:22;;;;;;;;;1.33;1.33;;;;;13.99;100.00;100467.69;5015367;28;45823;-84
2023/03/18 08:42:47;;;;;;;;;2.33;2.33;;;;;14.00;100.00;100472.13;5000350;28;45805;-84
2023/03/18 08:45:14;;;;;;;;;1.00;1.00;;;;;13.97;100.00;100458.78;5034598;28;45980;-84
2023/03/18 08:47:42;;;;;;;;;2.33;1.00;;;;;14.00;100.00;100463.84;5036773;28;45771;-84
2023/03/18 08:50:09;;;;;;;;;1.00;0.67;;;;;13.91;100.00;100444.88;5036418;28;45954;-83
2023/03/18 08:52:36;;;;;;;;;1.67;1.67;;;;;14.09;100.00;100467.94;5037613;28;45535;-85
2023/03/18 08:55:02;;;;;;;;;2.33;0.67;;;;;14.10;100.00;100455.78;5042131;28;45583;-84
2023/03/18 08:57:28;;;;;;;;;2.00;1.67;;;;;14.10;100.00;100461.31;5042798;28;45526;-81
2023/03/18 08:59:54;;;;;;;;;2.00;0.00;;;;;14.16;100.00;100463.13;5019198;28;45744;-83
2023/03/18 09:02:23;;;;;;;;;1.67;1.67;;;;;14.23;100.00;100463.00;5028491;28;45442;-88
2023/03/18 09:04:49;;;;;;;;;1.67;1.67;;;;;14.27;100.00;100476.06;5034398;28;45608;-85
2023/03/18 09:07:14;;;;;;;;;2.33;2.00;;;;;14.28;100.00;100469.47;5041958;28;45957;-84
2023/03/18 09:10:13;;;;;;;;;3.00;2.00;;;;;14.37;100.00;100464.44;5037565;28;45906;-90
2023/03/18 09:12:56;;;;;;;;;2.67;2.33;;;;;14.28;100.00;100436.38;5052946;28;45577;-87
2023/03/18 09:15:28;;;;;;;;;1.67;1.67;;;;;14.26;100.00;100421.97;5048522;28;46035;-82
2023/03/18 09:17:55;;;;;;;;;3.67;1.67;;;;;14.41;100.00;100440.78;5047804;28;47402;-84
2023/03/18 09:20:21;;;;;;;;;2.00;1.00;;;;;14.71;100.00;100463.81;5038268;28;45513;-86
2023/03/18 09:22:46;;;;;;;;;4.00;1.67;;;;;14.69;100.00;100458.53;5059514;28;45482;-84
2023/03/18 09:25:12;;;;;;;;;2.33;1.00;;;;;14.91;100.00;100468.91;5035930;28;46080;-85
2023/03/18 09:27:38;;;;;;;;;3.00;2.00;;;;;14.90;100.00;100465.31;5042551;28;45748;-84
2023/03/18 09:30:04;;;;;;;;;1.33;1.00;;;;;15.03;100.00;100480.78;5040314;28;45991;-87
2023/03/18 09:32:30;;;;;;;;;1.00;1.00;;;;;15.11;100.00;100471.25;5045685;28;44894;-84
2023/03/18 09:34:56;;;;;;;;;4.00;2.00;;;;;15.28;100.00;100468.53;5055454;28;46249;-85
2023/03/18 09:37:22;;;;;;;;;5.00;1.00;;;;;15.88;100.00;100459.72;5057583;28;46940;-85
2023/03/18 09:39:48;;;;;;;;;2.00;2.00;;;;;17.28;100.00;100451.38;5046244;28;45280;-87
2023/03/18 09:42:43;;;;;;;;;1.33;1.00;;;;;19.16;100.00;100463.25;5046905;28;46172;-83
2023/03/18 09:45:34;;;;;;;;;3.00;3.00;;;;;20.78;100.00;100473.00;5044026;28;45451;-87
2023/03/18 09:48:33;;;;;;;;;2.00;0.50;;;;;22.30;100.00;100470.59;5036008;28;45454;-86
2023/03/18 09:51:24;;;;;;;;;2.25;0.50;;;;;23.48;100.00;100456.38;5028994;28;45599;-89
2023/03/18 09:54:01;;;;;;;;;3.00;0.75;;;;;24.22;100.00;100445.38;5031210;28;45858;-88
2023/03/18 09:56:33;;;;;;;;;0.75;0.75;;;;;25.10;98.35;100449.25;5031801;28;45358;-87
2023/03/18 09:59:38;;;;;;;;;1.00;1.00;;;;;26.19;92.61;100459.59;5039873;28;46435;-87
2023/03/18 10:02:21;;;;;;;;;0.50;0.00;;;;;26.80;84.30;100442.19;5026041;28;45335;-87
2023/03/18 10:04:54;;;;;;;;;1.00;1.00;;;;;27.03;79.58;100428.84;5033258;28;46099;-87
2023/03/18 10:07:26;;;;;;;;;1.50;0.75;;;;;27.30;76.24;100419.28;5021090;28;46074;-87
2023/03/18 10:10:35;;;;;;;;;1.50;1.00;;;;;27.64;74.48;100463.56;5050092;28;46611;-86
2023/03/18 10:13:28;;;;;;;;;2.00;1.00;;;;;27.98;71.95;100446.97;5035583;28;45747;-88
2023/03/18 10:15:56;;;;;;;;;1.00;1.00;;;;;28.32;69.97;100431.97;5039053;28;45744;-86
2023/03/18 10:18:34;;;;;;;;;1.00;1.00;;;;;28.47;67.16;100441.03;5025113;28;44824;-88
2023/03/18 10:21:55;;;;;;;;;1.00;1.00;;;;;28.49;68.14;100459.28;5039987;28;45555;-89
2023/03/18 10:24:34;;;;;;;;;2.25;1.00;;;;;28.94;63.08;100455.13;4938586;28;45539;-86
2023/03/18 10:27:18;;;;;;;;;1.00;1.00;;;;;28.94;62.18;100457.94;5020663;28;45464;-87
2023/03/18 10:30:28;;;;;;;;;2.25;1.00;;;;;28.21;59.93;100456.06;5020953;28;45903;-87
2023/03/18 10:33:09;;;;;;;;;1.00;1.00;;;;;27.59;61.39;100440.34;5036014;28;46657;-87
2023/03/18 10:35:44;;;;;;;;;1.50;0.50;;;;;26.89;61.09;100460.78;5022737;28;45699;-86
2023/03/18 10:38:25;;;;;;;;;2.00;1.00;;;;;25.38;64.02;100464.91;5033411;28;45511;-85
2023/03/18 10:40:52;;;;;;;;;1.75;1.00;;;;;24.66;66.11;100448.75;5038161;28;45975;-85
2023/03/18 10:43:23;;;;;;;;;1.00;1.00;;;;;24.54;66.61;100454.84;5039833;28;46497;-89
2023/03/18 10:45:59;;;;;;;;;2.50;1.00;;;;;24.48;67.33;100445.69;5042290;28;45447;-85
2023/03/18 10:48:28;;;;;;;;;1.25;0.25;;;;;24.67;67.13;100450.41;5030499;28;45663;-80
2023/03/18 10:50:58;;;;;;;;;0.00;0.00;;;;;24.02;67.70;100426.13;5030707;28;45643;-85
2023/03/18 10:53:39;;;;;;;;;1.25;0.50;;;;;23.98;68.00;100428.69;5021906;28;47028;-88
2023/03/18 10:56:11;;;;;;;;;1.75;0.00;;;;;23.91;66.48;100405.88;5039015;28;45783;-88
2023/03/18 10:58:39;;;;;;;;;2.00;0.00;;;;;23.84;67.42;100391.41;5026278;28;45615;-88
2023/03/18 11:01:17;;;;;;;;;1.75;1.00;;;;;24.27;67.95;100459.28;5017014;28;45487;-85
2023/03/18 11:03:49;;;;;;;;;1.00;1.00;;;;;24.27;67.63;100444.44;5023498;28;48216;-86
2023/03/18 11:06:50;;;;;;;;;0.00;0.00;;;;;24.19;68.43;100450.75;5021073;28;45503;-87
2023/03/18 11:09:21;;;;;;;;;0.00;0.00;;;;;24.14;67.91;100421.66;5048815;28;44792;-88
2023/03/18 11:11:57;;;;;;;;;1.75;0.00;;;;;23.85;68.72;100449.03;5032524;28;45697;-86
2023/03/18 11:14:30;;;;;;;;;1.00;1.00;;;;;23.16;69.19;100442.00;5020063;28;47345;-86
2023/03/18 11:16:57;;;;;;;;;0.00;0.00;;;;;23.00;69.48;100441.31;5035082;28;45630;-88
2023/03/18 11:19:28;;;;;;;;;0.75;0.75;;;;;22.87;70.18;100439.25;5047358;28;45491;-86
2023/03/18 11:22:08;;;;;;;;;3.50;1.00;;;;;22.17;70.22;100418.22;5022708;28;45833;-85
2023/03/18 11:24:42;;;;;;;;;6.00;2.00;;;;;21.97;71.94;100448.00;5022246;28;45480;-84
2023/03/18 11:27:28;;;;;;;;;1.00;1.00;;;;;22.13;72.66;100447.91;5040172;28;45374;-85